Time;durP1;ratioP1;P1;durP2;ratioP2;P2;SDS_P1;SDS_P2;PMS_P1;PMS_P2;Temp;Humidity;BMP_temperature;BMP_pressure;BME280_temperature;BME280_humidity;BME280_pressure;Samples;Min_cycle;Max_cycle;Signal;HPM_P1;HPM_P2
2023/04/21 00:00:26;;;;;;;8.63;7.20;;;;;;;;;;4913536;29;20203;-39
2023/04/21 00:02:53;;;;;;;7.20;6.37;;;;;;;;;;4899426;29;20206;-40
2023/04/21 00:05:20;;;;;;;8.33;6.53;;;;;;;;;;4916246;29;20230;-40
2023/04/21 00:07:47;;;;;;;10.67;7.00;;;;;;;;;;4913536;29;20217;-37
2023/04/21 00:10:15;;;;;;;8.43;6.83;;;;;;;;;;4905953;29;20242;-39
2023/04/21 00:12:43;;;;;;;9.07;6.80;;;;;;;;;;4903112;29;20208;-37
2023/04/21 00:15:11;;;;;;;7.23;6.00;;;;;;;;;;4914664;29;20206;-41
2023/04/21 00:17:39;;;;;;;8.13;6.43;;;;;;;;;;4903562;29;20219;-41
2023/04/21 00:20:07;;;;;;;8.50;7.27;;;;;;;;;;4916196;29;20297;-33
2023/04/21 00:22:35;;;;;;;7.90;6.57;;;;;;;;;;4908953;29;20294;-35
2023/04/21 00:25:02;;;;;;;8.30;6.10;;;;;;;;;;4910212;29;20321;-37
2023/04/21 00:27:30;;;;;;;6.87;5.70;;;;;;;;;;4912224;29;20214;-41
2023/04/21 00:29:57;;;;;;;9.70;6.90;;;;;;;;;;4916449;29;20295;-37
2023/04/21 00:32:25;;;;;;;10.97;7.83;;;;;;;;;;4905155;29;20225;-37
2023/04/21 00:34:52;;;;;;;8.80;7.07;;;;;;;;;;4915088;29;20290;-37
2023/04/21 00:37:19;;;;;;;9.13;7.40;;;;;;;;;;4917671;29;20768;-39
2023/04/21 00:39:46;;;;;;;8.37;6.70;;;;;;;;;;4907756;29;20290;-44
2023/04/21 00:42:16;;;;;;;8.93;7.13;;;;;;;;;;4912808;29;20206;-39
2023/04/21 00:44:44;;;;;;;8.97;7.33;;;;;;;;;;4909163;29;20293;-42
2023/04/21 00:47:11;;;;;;;8.87;7.43;;;;;;;;;;4909759;29;20207;-40
2023/04/21 00:49:39;;;;;;;8.63;6.50;;;;;;;;;;4912638;29;20218;-35
2023/04/21 00:52:06;;;;;;;9.87;7.80;;;;;;;;;;4916185;29;20591;-36
2023/04/21 00:54:35;;;;;;;8.60;7.17;;;;;;;;;;4907934;29;20243;-33
2023/04/21 00:57:03;;;;;;;9.80;7.40;;;;;;;;;;4910234;29;20210;-35
2023/04/21 00:59:30;;;;;;;9.07;7.20;;;;;;;;;;4909647;29;20221;-37
2023/04/21 01:01:58;;;;;;;9.23;7.07;;;;;;;;;;4900976;29;20222;-37
2023/04/21 01:04:26;;;;;;;8.27;6.80;;;;;;;;;;4913461;29;20231;-40
2023/04/21 01:06:53;;;;;;;9.07;7.23;;;;;;;;;;4908644;29;20236;-39
2023/04/21 01:09:20;;;;;;;9.77;7.53;;;;;;;;;;4915958;29;20224;-38
2023/04/21 01:12:02;;;;;;;10.10;6.87;;;;;;;;;;4912972;29;20220;-40
2023/04/21 01:14:29;;;;;;;9.23;7.43;;;;;;;;;;4915159;29;20226;-36
2023/04/21 01:16:56;;;;;;;7.50;6.27;;;;;;;;;;4910643;29;20213;-41
2023/04/21 01:19:25;;;;;;;11.37;8.47;;;;;;;;;;4911499;29;20207;-41
2023/04/21 01:21:56;;;;;;;9.33;7.43;;;;;;;;;;4908483;29;20211;-38
2023/04/21 01:24:24;;;;;;;11.63;7.23;;;;;;;;;;4916089;29;20270;-34
2023/04/21 01:26:51;;;;;;;9.53;7.60;;;;;;;;;;4907331;29;20227;-40
2023/04/21 01:29:18;;;;;;;13.00;8.80;;;;;;;;;;4910501;29;20211;-42
2023/04/21 01:31:46;;;;;;;10.47;8.93;;;;;;;;;;4910806;29;20248;-40
2023/04/21 01:34:14;;;;;;;10.57;7.83;;;;;;;;;;4912954;29;20231;-36
2023/04/21 01:36:41;;;;;;;8.67;6.73;;;;;;;;;;4915434;29;20211;-40
2023/04/21 01:39:09;;;;;;;11.23;7.70;;;;;;;;;;4915543;29;20207;-41
2023/04/21 01:41:36;;;;;;;7.83;6.47;;;;;;;;;;4909346;29;20541;-35
2023/04/21 01:44:04;;;;;;;11.50;8.13;;;;;;;;;;4911697;29;20483;-39
2023/04/21 01:46:31;;;;;;;9.47;7.23;;;;;;;;;;4909683;29;20245;-44
2023/04/21 01:48:58;;;;;;;11.93;7.97;;;;;;;;;;4911149;29;20261;-35
2023/04/21 01:51:25;;;;;;;11.50;9.13;;;;;;;;;;4914667;29;20276;-42
2023/04/21 01:53:53;;;;;;;12.20;8.63;;;;;;;;;;4907839;29;20226;-39
2023/04/21 01:56:21;;;;;;;12.47;8.80;;;;;;;;;;4911228;29;20221;-42
2023/04/21 01:58:48;;;;;;;11.43;7.57;;;;;;;;;;4909684;29;20207;-39
2023/04/21 02:01:15;;;;;;;10.60;7.73;;;;;;;;;;4912053;29;20206;-43
2023/04/21 02:03:42;;;;;;;11.00;7.83;;;;;;;;;;4908506;29;20231;-43
2023/04/21 02:06:10;;;;;;;15.60;8.67;;;;;;;;;;4915041;29;20233;-38
2023/04/21 02:08:37;;;;;;;11.77;8.83;;;;;;;;;;4899520;29;20218;-41
2023/04/21 02:11:04;;;;;;;10.00;7.93;;;;;;;;;;4908173;29;20214;-39
2023/04/21 02:13:32;;;;;;;11.27;8.27;;;;;;;;;;4910469;29;20248;-42
2023/04/21 02:15:59;;;;;;;13.27;7.90;;;;;;;;;;4915537;29;20206;-44
2023/04/21 02:18:28;;;;;;;9.67;7.83;;;;;;;;;;4906038;29;20305;-44
2023/04/21 02:20:55;;;;;;;9.87;7.37;;;;;;;;;;4914347;29;20207;-37
2023/04/21 02:23:23;;;;;;;10.17;7.67;;;;;;;;;;4915159;29;20229;-40
2023/04/21 02:25:50;;;;;;;10.47;7.77;;;;;;;;;;4907047;29;20226;-41
2023/04/21 02:28:17;;;;;;;9.73;8.13;;;;;;;;;;4906953;29;20338;-43
2023/04/21 02:30:45;;;;;;;11.00;8.23;;;;;;;;;;4914702;29;20199;-44
2023/04/21 02:33:12;;;;;;;14.80;7.63;;;;;;;;;;4905732;29;20231;-39
2023/04/21 02:35:40;;;;;;;9.20;7.63;;;;;;;;;;4912779;29;20202;-41
2023/04/21 02:38:07;;;;;;;14.80;7.57;;;;;;;;;;4917155;29;20203;-40
2023/04/21 02:40:35;;;;;;;11.27;7.13;;;;;;;;;;4916417;29;20221;-40
2023/04/21 02:43:02;;;;;;;13.10;7.03;;;;;;;;;;4910436;29;20263;-37
2023/04/21 02:45:29;;;;;;;11.07;6.97;;;;;;;;;;4913830;29;20823;-37
2023/04/21 02:47:58;;;;;;;10.43;6.93;;;;;;;;;;4903089;29;20206;-43
2023/04/21 02:50:25;;;;;;;8.60;6.53;;;;;;;;;;4914038;29;20214;-42
2023/04/21 02:52:53;;;;;;;9.40;5.70;;;;;;;;;;4914997;29;20294;-40
2023/04/21 02:55:21;;;;;;;13.47;5.03;;;;;;;;;;4912273;29;20277;-38
2023/04/21 02:57:48;;;;;;;10.03;6.57;;;;;;;;;;4914929;29;20282;-33
2023/04/21 03:00:16;;;;;;;8.17;5.63;;;;;;;;;;4913678;29;20202;-45
2023/04/21 03:02:43;;;;;;;6.93;5.93;;;;;;;;;;4906121;29;20213;-37
2023/04/21 03:05:12;;;;;;;8.13;6.57;;;;;;;;;;4912866;29;20210;-42
2023/04/21 03:07:39;;;;;;;16.93;6.53;;;;;;;;;;4914956;29;20259;-39
2023/04/21 03:10:06;;;;;;;13.23;6.50;;;;;;;;;;4916109;29;20213;-38
2023/04/21 03:12:33;;;;;;;9.93;5.73;;;;;;;;;;4903713;29;20242;-37
2023/04/21 03:15:00;;;;;;;7.57;6.03;;;;;;;;;;4909471;29;20230;-44
2023/04/21 03:17:28;;;;;;;12.77;6.00;;;;;;;;;;4902817;29;20207;-37
2023/04/21 03:19:55;;;;;;;8.53;6.00;;;;;;;;;;4912195;29;20216;-42
2023/04/21 03:22:23;;;;;;;12.17;5.80;;;;;;;;;;4914328;29;20211;-39
2023/04/21 03:24:50;;;;;;;11.17;5.17;;;;;;;;;;4907731;29;20230;-36
2023/04/21 03:27:17;;;;;;;13.40;5.63;;;;;;;;;;4909168;29;20249;-37
2023/04/21 03:29:45;;;;;;;7.37;5.93;;;;;;;;;;4910572;29;20226;-40
2023/04/21 03:32:12;;;;;;;9.07;5.77;;;;;;;;;;4905759;29;20221;-39
2023/04/21 03:34:39;;;;;;;14.97;5.67;;;;;;;;;;4911970;29;20233;-43
2023/04/21 03:37:06;;;;;;;7.43;5.07;;;;;;;;;;4916838;29;20206;-37
2023/04/21 03:39:34;;;;;;;6.70;5.30;;;;;;;;;;4912023;29;20213;-41
2023/04/21 03:42:03;;;;;;;6.37;5.37;;;;;;;;;;4913373;29;20214;-38
2023/04/21 03:44:30;;;;;;;10.70;5.37;;;;;;;;;;4916759;29;20241;-36
2023/04/21 03:46:58;;;;;;;7.33;5.47;;;;;;;;;;4910268;29;20593;-37
2023/04/21 03:49:25;;;;;;;8.80;5.03;;;;;;;;;;4914505;29;20215;-42
2023/04/21 03:51:52;;;;;;;8.87;5.40;;;;;;;;;;5008049;23;20234;-28
2023/04/21 03:54:19;;;;;;;11.60;5.33;;;;;;;;;;4918845;29;20231;-28
2023/04/21 03:56:47;;;;;;;6.07;5.23;;;;;;;;;;4909495;29;20211;-27
2023/04/21 03:59:15;;;;;;;7.27;5.27;;;;;;;;;;4916320;29;20217;-26
2023/04/21 04:01:42;;;;;;;7.00;5.10;;;;;;;;;;4912838;29;20207;-26
2023/04/21 04:04:09;;;;;;;6.63;5.07;;;;;;;;;;4909957;29;20231;-32
2023/04/21 04:06:36;;;;;;;10.37;5.70;;;;;;;;;;4917035;29;20233;-29
2023/04/21 04:09:04;;;;;;;13.40;5.13;;;;;;;;;;4915068;29;20214;-30
2023/04/21 04:11:31;;;;;;;5.67;4.80;;;;;;;;;;4914453;29;20219;-28
2023/04/21 04:13:59;;;;;;;7.37;5.47;;;;;;;;;;4917243;29;20233;-26
2023/04/21 04:16:27;;;;;;;6.10;5.50;;;;;;;;;;4911863;29;20211;-30
2023/04/21 04:18:54;;;;;;;9.90;6.23;;;;;;;;;;4914597;29;20270;-29
2023/04/21 04:21:21;;;;;;;6.70;5.97;;;;;;;;;;4916239;29;20221;-30
2023/04/21 04:23:52;;;;;;;7.10;5.67;;;;;;;;;;4917567;29;20227;-29
2023/04/21 04:26:21;;;;;;;6.40;5.37;;;;;;;;;;4909554;29;20269;-30
2023/04/21 04:28:48;;;;;;;6.63;5.80;;;;;;;;;;4905390;29;20301;-30
2023/04/21 04:31:17;;;;;;;6.37;5.63;;;;;;;;;;4913339;29;20541;-29
2023/04/21 04:33:44;;;;;;;10.63;5.97;;;;;;;;;;4906797;29;20235;-27
2023/04/21 04:36:11;;;;;;;6.30;5.70;;;;;;;;;;4916863;29;20207;-29
2023/04/21 04:38:39;;;;;;;9.53;5.53;;;;;;;;;;4916889;29;20211;-29
2023/04/21 04:41:14;;;;;;;6.47;5.53;;;;;;;;;;4911526;29;20215;-28
2023/04/21 04:43:41;;;;;;;7.07;5.50;;;;;;;;;;4916870;29;20230;-26
2023/04/21 04:46:11;;;;;;;9.17;4.93;;;;;;;;;;4916449;29;20211;-31
2023/04/21 04:48:40;;;;;;;6.30;5.50;;;;;;;;;;4911385;29;20219;-29
2023/04/21 04:51:07;;;;;;;5.53;4.90;;;;;;;;;;4918582;29;20207;-28
2023/04/21 04:53:34;;;;;;;6.17;5.07;;;;;;;;;;4918232;29;20237;-27
2023/04/21 04:56:01;;;;;;;6.63;5.43;;;;;;;;;;4915334;29;20221;-29
2023/04/21 04:58:29;;;;;;;6.07;5.27;;;;;;;;;;4910524;29;20219;-29
2023/04/21 05:00:56;;;;;;;6.43;5.10;;;;;;;;;;4916180;29;20207;-29
2023/04/21 05:03:23;;;;;;;6.90;5.70;;;;;;;;;;4907826;29;20241;-28
2023/04/21 05:05:53;;;;;;;6.80;5.17;;;;;;;;;;4917647;29;20198;-27
2023/04/21 05:08:20;;;;;;;6.37;5.20;;;;;;;;;;4918156;29;20286;-27
2023/04/21 05:10:47;;;;;;;7.83;6.10;;;;;;;;;;4918895;29;20253;-27
2023/04/21 05:13:17;;;;;;;6.83;5.97;;;;;;;;;;4905817;29;20317;-26
2023/04/21 05:15:57;;;;;;;6.57;5.63;;;;;;;;;;4916741;29;20214;-28
2023/04/21 05:18:25;;;;;;;7.97;6.40;;;;;;;;;;4909638;29;20211;-29
2023/04/21 05:20:53;;;;;;;8.30;6.60;;;;;;;;;;4906555;29;20295;-28
2023/04/21 05:23:23;;;;;;;10.17;6.60;;;;;;;;;;4912680;29;20237;-27
2023/04/21 05:25:50;;;;;;;6.63;5.73;;;;;;;;;;4917605;29;20536;-30
2023/04/21 05:28:17;;;;;;;13.57;6.60;;;;;;;;;;4918024;29;20233;-29
2023/04/21 05:30:44;;;;;;;7.83;6.40;;;;;;;;;;4912990;29;20292;-26
2023/04/21 05:33:11;;;;;;;8.97;6.40;;;;;;;;;;4904657;29;20231;-27
2023/04/21 05:35:38;;;;;;;10.70;7.53;;;;;;;;;;4915855;29;20217;-27
2023/04/21 05:38:07;;;;;;;9.20;7.37;;;;;;;;;;4909525;29;20218;-26
2023/04/21 05:40:34;;;;;;;9.63;6.53;;;;;;;;;;4899287;29;20211;-27
2023/04/21 05:43:01;;;;;;;6.60;5.30;;;;;;;;;;4911205;29;20333;-27
2023/04/21 05:45:29;;;;;;;10.93;7.33;;;;;;;;;;4917577;29;20211;-25
2023/04/21 05:47:56;;;;;;;9.90;7.37;;;;;;;;;;4904552;29;20227;-26
2023/04/21 05:50:25;;;;;;;9.10;6.73;;;;;;;;;;4915652;29;20225;-28
2023/04/21 05:52:52;;;;;;;8.03;6.13;;;;;;;;;;4916350;29;20266;-26
2023/04/21 05:55:20;;;;;;;9.63;6.93;;;;;;;;;;4913913;29;20217;-29
2023/04/21 05:57:49;;;;;;;8.73;6.03;;;;;;;;;;4916422;29;20219;-25
2023/04/21 06:00:16;;;;;;;12.77;8.20;;;;;;;;;;4916063;29;20195;-27
2023/04/21 06:02:43;;;;;;;11.47;7.67;;;;;;;;;;4913558;29;20217;-28
2023/04/21 06:05:10;;;;;;;10.53;8.10;;;;;;;;;;4917163;29;20218;-27
2023/04/21 06:07:38;;;;;;;10.37;7.90;;;;;;;;;;4913513;29;20219;-29
2023/04/21 06:10:05;;;;;;;12.53;8.90;;;;;;;;;;4910114;29;20207;-30
2023/04/21 06:12:33;;;;;;;11.77;7.90;;;;;;;;;;4905454;29;20263;-28
2023/04/21 06:15:01;;;;;;;11.50;8.13;;;;;;;;;;4911222;29;20237;-29
2023/04/21 06:17:28;;;;;;;13.57;8.87;;;;;;;;;;4908964;29;20203;-28
2023/04/21 06:19:55;;;;;;;11.73;8.00;;;;;;;;;;4915349;29;20213;-26
2023/04/21 06:22:22;;;;;;;10.90;8.07;;;;;;;;;;4916580;29;20214;-28
2023/04/21 06:24:49;;;;;;;13.20;8.70;;;;;;;;;;4910149;29;20231;-27
2023/04/21 06:27:16;;;;;;;10.57;7.83;;;;;;;;;;4913122;29;20236;-27
2023/04/21 06:29:45;;;;;;;12.97;9.03;;;;;;;;;;4916525;29;20207;-29
2023/04/21 06:32:12;;;;;;;10.77;7.97;;;;;;;;;;4906766;29;20212;-30
2023/04/21 06:34:39;;;;;;;11.90;8.70;;;;;;;;;;4912829;29;20242;-29
2023/04/21 06:37:07;;;;;;;12.20;8.13;;;;;;;;;;4916604;29;20210;-29
2023/04/21 06:39:34;;;;;;;12.33;8.17;;;;;;;;;;4911811;29;20243;-30
2023/04/21 06:42:01;;;;;;;11.63;8.57;;;;;;;;;;4899997;29;20215;-29
2023/04/21 06:44:28;;;;;;;12.87;8.90;;;;;;;;;;4912917;29;20297;-30
2023/04/21 06:46:56;;;;;;;10.87;8.77;;;;;;;;;;4909454;29;20215;-26
2023/04/21 06:49:24;;;;;;;12.50;8.83;;;;;;;;;;4912649;29;20210;-30
2023/04/21 06:51:51;;;;;;;9.97;8.03;;;;;;;;;;4915661;29;20219;-27
2023/04/21 06:54:25;;;;;;;12.27;8.70;;;;;;;;;;4916814;29;20227;-28
2023/04/21 06:56:52;;;;;;;12.17;8.37;;;;;;;;;;4906203;29;20253;-27
2023/04/21 06:59:19;;;;;;;14.40;8.33;;;;;;;;;;4908124;29;20233;-28
2023/04/21 07:01:47;;;;;;;12.30;8.23;;;;;;;;;;4909509;29;20209;-29
2023/04/21 07:04:16;;;;;;;12.80;8.90;;;;;;;;;;4911025;29;20329;-28
2023/04/21 07:06:43;;;;;;;11.73;8.80;;;;;;;;;;4916122;29;20327;-30
2023/04/21 07:09:10;;;;;;;12.40;8.93;;;;;;;;;;4916212;29;20226;-28
2023/04/21 07:11:37;;;;;;;14.23;8.83;;;;;;;;;;4904768;29;20215;-28
2023/04/21 07:14:05;;;;;;;13.40;9.30;;;;;;;;;;4913149;29;20226;-27
2023/04/21 07:16:32;;;;;;;11.83;8.67;;;;;;;;;;4910700;29;20218;-25
2023/04/21 07:19:00;;;;;;;12.90;9.23;;;;;;;;;;4915681;29;20214;-31
2023/04/21 07:21:30;;;;;;;12.67;9.60;;;;;;;;;;4916364;29;20210;-30
2023/04/21 07:23:58;;;;;;;12.47;9.33;;;;;;;;;;4917044;29;20290;-28
2023/04/21 07:26:25;;;;;;;12.53;9.07;;;;;;;;;;4909983;29;20215;-28
2023/04/21 07:28:54;;;;;;;16.63;10.40;;;;;;;;;;4909685;29;20223;-29
2023/04/21 07:31:21;;;;;;;13.00;9.10;;;;;;;;;;4912623;29;20210;-30
2023/04/21 07:33:48;;;;;;;14.07;9.37;;;;;;;;;;4913946;29;20230;-29
2023/04/21 07:36:15;;;;;;;11.97;8.73;;;;;;;;;;4916159;29;20207;-28
2023/04/21 07:38:44;;;;;;;13.40;9.60;;;;;;;;;;4916752;29;20231;-28
2023/04/21 07:41:11;;;;;;;15.23;10.03;;;;;;;;;;4910887;29;20294;-28
2023/04/21 07:43:38;;;;;;;16.03;11.23;;;;;;;;;;4913117;29;20234;-31
2023/04/21 07:46:05;;;;;;;16.30;9.83;;;;;;;;;;4916465;29;20214;-31
2023/04/21 07:48:33;;;;;;;15.20;10.73;;;;;;;;;;4905025;29;20262;-30
2023/04/21 07:51:02;;;;;;;13.70;9.90;;;;;;;;;;4915328;29;20211;-29
2023/04/21 07:53:29;;;;;;;15.60;10.20;;;;;;;;;;4915965;29;20234;-31
2023/04/21 07:55:57;;;;;;;18.90;11.97;;;;;;;;;;4911998;29;20546;-27
2023/04/21 07:58:25;;;;;;;15.70;10.73;;;;;;;;;;4914942;29;20211;-29
2023/04/21 08:00:52;;;;;;;13.37;9.67;;;;;;;;;;4915094;29;20222;-26
2023/04/21 08:03:19;;;;;;;14.57;10.00;;;;;;;;;;4904482;29;20240;-27
2023/04/21 08:05:46;;;;;;;13.33;10.13;;;;;;;;;;4915564;29;20208;-30
2023/04/21 08:08:19;;;;;;;12.33;9.17;;;;;;;;;;4915966;29;20226;-30
2023/04/21 08:10:46;;;;;;;11.93;8.43;;;;;;;;;;4909814;29;20227;-29
2023/04/21 08:13:14;;;;;;;11.47;8.50;;;;;;;;;;4910157;29;20283;-29
2023/04/21 08:15:41;;;;;;;10.53;7.97;;;;;;;;;;4916038;29;20207;-29
2023/04/21 08:18:08;;;;;;;13.70;9.37;;;;;;;;;;4904785;29;20213;-28
2023/04/21 08:20:36;;;;;;;10.43;8.73;;;;;;;;;;4914609;29;20213;-31
2023/04/21 08:23:03;;;;;;;10.50;8.33;;;;;;;;;;4916715;29;20243;-31
2023/04/21 08:25:30;;;;;;;9.57;7.17;;;;;;;;;;4911397;29;20302;-31
2023/04/21 08:27:57;;;;;;;8.37;7.43;;;;;;;;;;4902524;29;20234;-27
2023/04/21 08:30:26;;;;;;;9.30;6.30;;;;;;;;;;4915524;29;20206;-29
2023/04/21 08:32:53;;;;;;;9.07;6.90;;;;;;;;;;4903696;29;20229;-26
2023/04/21 08:35:20;;;;;;;8.13;6.20;;;;;;;;;;4918637;29;20206;-29
2023/04/21 08:37:47;;;;;;;8.97;6.43;;;;;;;;;;4919242;29;20213;-28
2023/04/21 08:40:14;;;;;;;7.43;6.30;;;;;;;;;;4914669;29;20211;-30
2023/04/21 08:42:43;;;;;;;8.30;5.50;;;;;;;;;;4918069;29;20234;-29
2023/04/21 08:45:10;;;;;;;9.00;7.00;;;;;;;;;;4916451;29;20208;-31
2023/04/21 08:47:41;;;;;;;6.80;6.10;;;;;;;;;;4901744;29;20234;-29
2023/04/21 08:50:12;;;;;;;8.47;5.43;;;;;;;;;;4915409;29;20207;-28
2023/04/21 08:52:39;;;;;;;7.27;5.83;;;;;;;;;;4909976;29;20231;-28
2023/04/21 08:55:07;;;;;;;6.87;5.97;;;;;;;;;;4910160;29;20226;-29
2023/04/21 08:57:43;;;;;;;8.33;5.67;;;;;;;;;;4915815;29;20214;-28
2023/04/21 09:00:11;;;;;;;8.30;5.60;;;;;;;;;;4900092;29;20195;-29
2023/04/21 09:05:43;;;;;;;6.23;5.57;;;;;;;;;;5120623;27;20532;-32
2023/04/21 09:08:11;;;;;;;5.87;5.13;;;;;;;;;;5129273;27;20207;-35
2023/04/21 09:10:45;;;;;;;6.23;5.33;;;;;;;;;;5105803;28;20295;-37
2023/04/21 09:13:12;;;;;;;5.53;4.77;;;;;;;;;;5115556;27;20230;-36
2023/04/21 09:15:40;;;;;;;5.00;4.50;;;;;;;;;;5110804;28;20225;-38
2023/04/21 09:18:11;;;;;;;5.73;4.97;;;;;;;;;;5105985;28;20579;-36
2023/04/21 09:20:39;;;;;;;5.50;5.00;;;;;;;;;;5102730;28;20211;-35
2023/04/21 09:23:07;;;;;;;6.53;4.87;;;;;;;;;;5105528;28;20251;-34
2023/04/21 09:25:35;;;;;;;6.27;4.87;;;;;;;;;;5094352;28;20228;-33
2023/04/21 09:28:02;;;;;;;5.23;4.73;;;;;;;;;;5101844;28;20200;-34
2023/04/21 09:30:29;;;;;;;6.90;5.03;;;;;;;;;;5106281;28;20204;-38
2023/04/21 09:32:57;;;;;;;5.17;4.67;;;;;;;;;;5108807;28;20257;-37
2023/04/21 09:35:28;;;;;;;6.10;4.13;;;;;;;;;;5119322;27;20204;-34
2023/04/21 09:37:55;;;;;;;5.50;4.60;;;;;;;;;;5104686;28;20208;-33
2023/04/21 09:40:24;;;;;;;6.60;5.30;;;;;;;;;;5123973;28;20210;-35
2023/04/21 09:42:51;;;;;;;7.50;5.97;;;;;;;;;;5108908;27;20601;-38
2023/04/21 09:45:18;;;;;;;7.57;6.30;;;;;;;;;;5106359;28;20224;-33
2023/04/21 09:47:50;;;;;;;7.60;6.03;;;;;;;;;;5110924;28;20216;-36
2023/04/21 09:50:17;;;;;;;8.13;6.23;;;;;;;;;;5121116;27;20226;-37
2023/04/21 09:52:46;;;;;;;8.63;6.93;;;;;;;;;;5128883;28;20207;-38
2023/04/21 09:55:20;;;;;;;8.63;6.67;;;;;;;;;;5331171;22;20237;-29
2023/04/21 09:58:01;;;;;;;9.43;7.03;;;;;;;;;;5042196;28;20214;-29
2023/04/21 10:00:43;;;;;;;10.63;7.53;;;;;;;;;;5054586;28;20202;-27
2023/04/21 10:03:21;;;;;;;11.93;7.90;;;;;;;;;;5050488;28;20230;-28
2023/04/21 10:05:55;;;;;;;11.70;8.17;;;;;;;;;;5033048;28;20221;-26
2023/04/21 10:08:24;;;;;;;10.07;6.80;;;;;;;;;;5033873;28;20210;-28
2023/04/21 10:10:58;;;;;;;10.97;7.30;;;;;;;;;;5040478;28;20212;-26
2023/04/21 10:13:34;;;;;;;9.30;7.00;;;;;;;;;;5052256;28;20245;-27
2023/04/21 10:16:06;;;;;;;8.77;6.87;;;;;;;;;;5031297;28;20197;-26
2023/04/21 10:18:45;;;;;;;8.83;7.47;;;;;;;;;;5036848;28;20221;-29
2023/04/21 10:21:24;;;;;;;9.47;6.37;;;;;;;;;;5047464;28;20213;-27
2023/04/21 10:24:06;;;;;;;11.47;7.50;;;;;;;;;;5052201;28;20229;-26
2023/04/21 10:26:45;;;;;;;9.67;6.73;;;;;;;;;;5032091;28;20218;-27
2023/04/21 10:29:16;;;;;;;8.33;6.73;;;;;;;;;;5047147;28;20232;-28
2023/04/21 10:31:55;;;;;;;9.70;6.93;;;;;;;;;;5045991;28;20569;-28
2023/04/21 10:34:36;;;;;;;8.20;6.63;;;;;;;;;;5022818;28;20216;-27
2023/04/21 10:37:14;;;;;;;9.70;6.87;;;;;;;;;;5026982;28;20567;-26
2023/04/21 10:40:08;;;;;;;8.23;5.77;;;;;;;;;;5033259;28;20243;-25
2023/04/21 10:42:52;;;;;;;7.13;5.63;;;;;;;;;;5037601;28;20210;-28
2023/04/21 10:45:42;;;;;;;8.13;6.23;;;;;;;;;;5033557;28;20226;-28
2023/04/21 11:04:33;;;;;;;10.07;5.87;;;;;;;;;;5309320;22;20240;-26
2023/04/21 11:10:25;;;;;;;5.80;4.90;;;;;;;;;;5053332;28;20210;-28
2023/04/21 11:13:03;;;;;;;6.00;5.40;;;;;;;;;;5050020;28;20201;-28
2023/04/21 11:15:34;;;;;;;8.43;4.67;;;;;;;;;;5075456;28;20266;-25
2023/04/21 11:18:06;;;;;;;6.83;5.63;;;;;;;;;;5054265;28;20294;-28
2023/04/21 11:23:31;;;;;;;9.27;5.50;;;;;;;;;;5061743;28;20289;-25
2023/04/21 11:26:01;;;;;;;6.67;5.37;;;;;;;;;;5053023;28;20223;-27
2023/04/21 11:29:18;;;;;;;;;;;;;;;;;;;;;
2023/04/21 11:34:46;;;;;;;7.17;5.73;;;;;;;;;;5053528;28;20232;-27
2023/04/21 11:37:28;;;;;;;7.07;5.53;;;;;;;;;;5055002;28;20201;-27
2023/04/21 11:40:10;;;;;;;5.93;5.23;;;;;;;;;;5061109;28;20220;-26
2023/04/21 11:42:43;;;;;;;6.43;5.20;;;;;;;;;;5054554;28;20243;-40
2023/04/21 11:45:19;;;;;;;6.50;4.87;;;;;;;;;;5055883;28;20236;-27
2023/04/21 11:47:53;;;;;;;7.57;5.37;;;;;;;;;;5053284;28;20235;-28
2023/04/21 11:53:20;;;;;;;7.03;5.20;;;;;;;;;;5066859;28;20233;-27
2023/04/21 11:55:56;;;;;;;5.27;4.77;;;;;;;;;;5052144;28;20261;-28
2023/04/21 11:58:25;;;;;;;4.90;4.37;;;;;;;;;;5067093;28;20204;-27
2023/04/21 12:06:02;;;;;;;4.80;4.27;;;;;;;;;;5033868;28;20249;-29
2023/04/21 12:08:35;;;;;;;4.40;4.00;;;;;;;;;;5039046;28;20207;-29
2023/04/21 12:11:04;;;;;;;5.63;4.30;;;;;;;;;;5048371;28;20202;-29
2023/04/21 12:21:31;;;;;;;4.20;3.13;;;;;;;;;;5030999;28;20217;-27
2023/04/21 12:24:15;;;;;;;3.80;3.50;;;;;;;;;;5030864;28;20241;-27
2023/04/21 12:26:45;;;;;;;4.90;3.40;;;;;;;;;;5024177;28;20203;-30
2023/04/21 12:29:24;;;;;;;3.93;3.53;;;;;;;;;;5041863;28;20214;-28
2023/04/21 12:31:56;;;;;;;4.20;3.70;;;;;;;;;;5035172;28;20200;-27
2023/04/21 12:34:37;;;;;;;3.63;3.33;;;;;;;;;;5031962;28;20252;-30
2023/04/21 12:37:20;;;;;;;4.33;3.17;;;;;;;;;;5032189;28;20204;-27
2023/04/21 12:39:56;;;;;;;3.30;3.00;;;;;;;;;;5031668;28;20265;-27
2023/04/21 12:42:49;;;;;;;2.90;2.70;;;;;;;;;;5049550;28;20193;-27
2023/04/21 12:45:21;;;;;;;2.43;2.20;;;;;;;;;;5049362;28;20218;-27
2023/04/21 12:47:54;;;;;;;5.47;3.00;;;;;;;;;;5029513;28;20204;-29
2023/04/21 12:50:28;;;;;;;2.80;2.57;;;;;;;;;;5023420;28;20227;-27
2023/04/21 12:55:58;;;;;;;3.23;2.93;;;;;;;;;;5025672;28;20241;-28
2023/04/21 12:58:34;;;;;;;3.03;2.40;;;;;;;;;;5024749;28;20201;-30
2023/04/21 13:01:05;;;;;;;3.03;2.60;;;;;;;;;;5031035;28;20208;-29
2023/04/21 13:03:38;;;;;;;3.17;2.87;;;;;;;;;;5028284;28;20222;-26
2023/04/21 13:06:16;;;;;;;3.37;3.07;;;;;;;;;;5032159;28;20231;-29
2023/04/21 13:08:57;;;;;;;4.83;3.40;;;;;;;;;;5034294;28;20211;-27
2023/04/21 13:11:28;;;;;;;3.60;3.00;;;;;;;;;;5032251;28;20203;-27
2023/04/21 13:14:20;;;;;;;4.23;2.53;;;;;;;;;;5028529;28;20214;-26
2023/04/21 13:17:02;;;;;;;4.13;3.00;;;;;;;;;;5038529;28;20230;-27
2023/04/21 13:19:39;;;;;;;2.87;2.50;;;;;;;;;;5034623;28;20215;-29
2023/04/21 13:22:15;;;;;;;3.20;2.90;;;;;;;;;;5047411;28;20205;-28
2023/04/21 13:25:15;;;;;;;3.20;2.90;;;;;;;;;;5047346;28;20235;-27
2023/04/21 13:27:55;;;;;;;3.20;2.90;;;;;;;;;;5042073;28;20225;-31
2023/04/21 13:30:44;;;;;;;2.60;2.40;;;;;;;;;;5044770;28;20194;-29
2023/04/21 13:33:34;;;;;;;2.37;2.00;;;;;;;;;;5033404;28;20272;-27
2023/04/21 13:36:09;;;;;;;3.20;2.57;;;;;;;;;;5034323;28;20219;-29
2023/04/21 13:41:54;;;;;;;3.00;2.70;;;;;;;;;;4987687;27;3156304;-41
2023/04/21 13:44:43;;;;;;;2.57;2.37;;;;;;;;;;5065451;28;20224;-34
2023/04/21 13:47:24;;;;;;;3.80;2.63;;;;;;;;;;5060799;28;20199;-36
2023/04/21 13:49:58;;;;;;;4.07;2.63;;;;;;;;;;5050842;28;20189;-34
2023/04/21 13:52:35;;;;;;;3.47;2.50;;;;;;;;;;5050491;28;20202;-35
2023/04/21 13:55:16;;;;;;;2.47;2.27;;;;;;;;;;5050588;28;20293;-38
2023/04/21 13:58:00;;;;;;;2.67;1.87;;;;;;;;;;5049999;28;20205;-39
2023/04/21 14:00:32;;;;;;;2.87;2.50;;;;;;;;;;5057262;28;20218;-37
2023/04/21 14:06:11;;;;;;;2.80;2.60;;;;;;;;;;5066458;28;20206;-33
2023/04/21 14:11:26;;;;;;;3.27;1.90;;;;;;;;;;5066705;28;20274;-37
2023/04/21 14:24:46;;;;;;;2.30;2.10;;;;;;;;;;5061772;28;20229;-37
2023/04/21 14:30:58;;;;;;;2.90;2.40;;;;;;;;;;5021459;28;20241;-35
2023/04/21 14:33:36;;;;;;;3.10;2.80;;;;;;;;;;5050759;28;20246;-38
2023/04/21 14:36:24;;;;;;;2.93;2.73;;;;;;;;;;5054886;28;20206;-37
2023/04/21 14:39:02;;;;;;;2.80;2.50;;;;;;;;;;5069702;28;20267;-35
2023/04/21 14:52:53;;;;;;;3.27;2.97;;;;;;;;;;5037906;28;20214;-31
2023/04/21 14:55:49;;;;;;;2.53;2.33;;;;;;;;;;5011037;28;20264;-34
2023/04/21 14:58:22;;;;;;;2.97;2.77;;;;;;;;;;5011810;28;20281;-37
2023/04/21 15:01:03;;;;;;;2.40;2.20;;;;;;;;;;5027309;28;20269;-38
2023/04/21 15:04:19;;;;;;;3.63;2.73;;;;;;;;;;5007424;28;20231;-40
2023/04/21 15:09:51;;;;;;;2.90;2.70;;;;;;;;;;5016263;28;20211;-36
2023/04/21 15:15:11;;;;;;;3.03;2.67;;;;;;;;;;5013052;28;20214;-35
2023/04/21 15:17:54;;;;;;;2.67;2.47;;;;;;;;;;5007349;28;20266;-34
2023/04/21 15:20:33;;;;;;;3.20;3.00;;;;;;;;;;5009581;28;20222;-35
2023/04/21 15:23:08;;;;;;;4.13;2.77;;;;;;;;;;5016095;28;20235;-39
2023/04/21 15:25:56;;;;;;;2.93;2.50;;;;;;;;;;5012739;28;20239;-32
2023/04/21 15:31:21;;;;;;;2.80;2.60;;;;;;;;;;5003455;28;20211;-37
2023/04/21 15:34:11;;;;;;;2.90;2.70;;;;;;;;;;5004133;28;20228;-37
2023/04/21 15:36:55;;;;;;;3.63;3.33;;;;;;;;;;5014395;28;20211;-33
2023/04/21 15:45:02;;;;;;;4.23;3.00;;;;;;;;;;5033121;28;20220;-29
2023/04/21 15:47:44;;;;;;;4.20;2.77;;;;;;;;;;5038445;28;20202;-28
2023/04/21 15:50:28;;;;;;;3.57;3.00;;;;;;;;;;5034695;28;20194;-29
2023/04/21 15:53:07;;;;;;;2.57;2.37;;;;;;;;;;5034327;28;20205;-28
2023/04/21 15:55:41;;;;;;;2.80;2.60;;;;;;;;;;5035022;28;20223;-30
2023/04/21 16:00:40;;;;;;;3.13;2.80;;;;;;;;;;5069179;28;20312;-35
2023/04/21 16:03:07;;;;;;;5.00;3.10;;;;;;;;;;5062678;28;20230;-36
2023/04/21 16:05:35;;;;;;;2.80;2.60;;;;;;;;;;5051948;28;20216;-34
2023/04/21 16:08:02;;;;;;;3.50;3.20;;;;;;;;;;5054232;28;20218;-39
2023/04/21 16:10:30;;;;;;;3.57;2.97;;;;;;;;;;5048082;28;20206;-34
2023/04/21 16:12:57;;;;;;;3.50;3.20;;;;;;;;;;5053228;28;20316;-35
2023/04/21 16:15:24;;;;;;;2.67;2.47;;;;;;;;;;5053585;28;20218;-33
2023/04/21 16:17:53;;;;;;;3.50;2.93;;;;;;;;;;5040610;28;20232;-37
2023/04/21 16:20:20;;;;;;;3.67;3.30;;;;;;;;;;5051951;28;20225;-36
2023/04/21 16:22:49;;;;;;;3.80;3.50;;;;;;;;;;5060791;28;20206;-38
2023/04/21 16:25:17;;;;;;;3.00;2.80;;;;;;;;;;5054643;28;20233;-35
2023/04/21 16:27:44;;;;;;;4.53;3.70;;;;;;;;;;5051797;28;20217;-42
2023/04/21 16:30:12;;;;;;;3.37;3.07;;;;;;;;;;5052280;28;20248;-37
2023/04/21 16:32:39;;;;;;;3.83;3.43;;;;;;;;;;5045777;28;20207;-39
2023/04/21 16:35:08;;;;;;;4.07;3.37;;;;;;;;;;5045271;28;20211;-36
2023/04/21 16:37:36;;;;;;;3.40;3.10;;;;;;;;;;5052882;28;20206;-36